sensor_id;sensor_type;location;lat;lon;timestamp;P1;durP1;ratioP1;P2;durP2;ratioP2
21426;SDS011;10874;49.452;11.050;2023-04-22T00:02:00;7.70;;;5.40;;
21426;SDS011;10874;49.452;11.050;2023-04-22T00:04:27;9.10;;;5.40;;
21426;SDS011;10874;49.452;11.050;2023-04-22T00:06:55;6.40;;;4.80;;
21426;SDS011;10874;49.452;11.050;2023-04-22T00:09:22;7.23;;;5.00;;
21426;SDS011;10874;49.452;11.050;2023-04-22T00:11:49;6.13;;;5.10;;
21426;SDS011;10874;49.452;11.050;2023-04-22T00:14:16;8.23;;;5.13;;
21426;SDS011;10874;49.452;11.050;2023-04-22T00:16:43;7.33;;;5.47;;
21426;SDS011;10874;49.452;11.050;2023-04-22T00:19:10;8.30;;;4.90;;
21426;SDS011;10874;49.452;11.050;2023-04-22T00:21:37;6.63;;;4.97;;
21426;SDS011;10874;49.452;11.050;2023-04-22T00:24:03;5.40;;;4.80;;
21426;SDS011;10874;49.452;11.050;2023-04-22T00:26:30;5.77;;;5.17;;
21426;SDS011;10874;49.452;11.050;2023-04-22T00:28:57;5.47;;;4.30;;
21426;SDS011;10874;49.452;11.050;2023-04-22T00:31:23;6.63;;;4.90;;
21426;SDS011;10874;49.452;11.050;2023-04-22T00:33:50;5.60;;;5.03;;
21426;SDS011;10874;49.452;11.050;2023-04-22T00:36:17;6.57;;;4.73;;
21426;SDS011;10874;49.452;11.050;2023-04-22T00:38:46;7.10;;;4.20;;
21426;SDS011;10874;49.452;11.050;2023-04-22T00:41:13;9.93;;;4.80;;
21426;SDS011;10874;49.452;11.050;2023-04-22T00:43:40;5.83;;;4.47;;
21426;SDS011;10874;49.452;11.050;2023-04-22T00:46:07;6.83;;;4.37;;
21426;SDS011;10874;49.452;11.050;2023-04-22T00:48:37;5.93;;;4.60;;
21426;SDS011;10874;49.452;11.050;2023-04-22T00:51:04;7.30;;;4.50;;
21426;SDS011;10874;49.452;11.050;2023-04-22T00:53:32;5.40;;;4.43;;
21426;SDS011;10874;49.452;11.050;2023-04-22T00:55:58;5.63;;;4.73;;
21426;SDS011;10874;49.452;11.050;2023-04-22T00:58:26;6.00;;;4.50;;
21426;SDS011;10874;49.452;11.050;2023-04-22T01:00:54;7.37;;;4.63;;
21426;SDS011;10874;49.452;11.050;2023-04-22T01:03:21;6.13;;;4.33;;
21426;SDS011;10874;49.452;11.050;2023-04-22T01:05:49;5.30;;;4.23;;
21426;SDS011;10874;49.452;11.050;2023-04-22T01:08:16;6.67;;;4.70;;
21426;SDS011;10874;49.452;11.050;2023-04-22T01:10:43;5.60;;;4.13;;
21426;SDS011;10874;49.452;11.050;2023-04-22T01:13:10;7.70;;;5.13;;
21426;SDS011;10874;49.452;11.050;2023-04-22T01:15:36;6.90;;;4.90;;
21426;SDS011;10874;49.452;11.050;2023-04-22T01:18:03;6.30;;;4.60;;
21426;SDS011;10874;49.452;11.050;2023-04-22T01:20:30;8.57;;;5.10;;
21426;SDS011;10874;49.452;11.050;2023-04-22T01:22:57;6.00;;;4.63;;
21426;SDS011;10874;49.452;11.050;2023-04-22T01:25:27;6.70;;;5.33;;
21426;SDS011;10874;49.452;11.050;2023-04-22T01:27:54;5.93;;;5.03;;
21426;SDS011;10874;49.452;11.050;2023-04-22T01:30:21;5.40;;;4.80;;
21426;SDS011;10874;49.452;11.050;2023-04-22T01:32:48;6.73;;;4.93;;
21426;SDS011;10874;49.452;11.050;2023-04-22T01:35:19;7.07;;;5.23;;
21426;SDS011;10874;49.452;11.050;2023-04-22T01:37:46;7.73;;;4.83;;
21426;SDS011;10874;49.452;11.050;2023-04-22T01:40:13;7.07;;;4.97;;
21426;SDS011;10874;49.452;11.050;2023-04-22T01:42:42;8.03;;;4.70;;
21426;SDS011;10874;49.452;11.050;2023-04-22T01:45:09;5.10;;;4.37;;
21426;SDS011;10874;49.452;11.050;2023-04-22T01:47:35;6.40;;;4.70;;
21426;SDS011;10874;49.452;11.050;2023-04-22T01:50:02;10.53;;;5.40;;
21426;SDS011;10874;49.452;11.050;2023-04-22T01:52:29;5.50;;;4.87;;
21426;SDS011;10874;49.452;11.050;2023-04-22T01:54:56;5.20;;;4.10;;
21426;SDS011;10874;49.452;11.050;2023-04-22T01:57:23;8.07;;;4.83;;
21426;SDS011;10874;49.452;11.050;2023-04-22T01:59:50;8.53;;;5.27;;
21426;SDS011;10874;49.452;11.050;2023-04-22T02:02:16;7.70;;;4.83;;
21426;SDS011;10874;49.452;11.050;2023-04-22T02:04:43;10.20;;;4.80;;
21426;SDS011;10874;49.452;11.050;2023-04-22T02:07:10;6.13;;;5.23;;
21426;SDS011;10874;49.452;11.050;2023-04-22T02:09:37;9.23;;;5.03;;
21426;SDS011;10874;49.452;11.050;2023-04-22T02:12:04;6.60;;;4.97;;
21426;SDS011;10874;49.452;11.050;2023-04-22T02:14:31;7.93;;;4.60;;
21426;SDS011;10874;49.452;11.050;2023-04-22T02:17:01;6.13;;;5.13;;
21426;SDS011;10874;49.452;11.050;2023-04-22T02:19:28;6.67;;;4.87;;
21426;SDS011;10874;49.452;11.050;2023-04-22T02:21:55;7.63;;;5.17;;
21426;SDS011;10874;49.452;11.050;2023-04-22T02:24:22;6.37;;;4.77;;
21426;SDS011;10874;49.452;11.050;2023-04-22T02:26:49;7.57;;;4.80;;
21426;SDS011;10874;49.452;11.050;2023-04-22T02:29:16;7.37;;;4.70;;
21426;SDS011;10874;49.452;11.050;2023-04-22T02:31:43;7.73;;;5.00;;
21426;SDS011;10874;49.452;11.050;2023-04-22T02:34:09;6.73;;;5.13;;
21426;SDS011;10874;49.452;11.050;2023-04-22T02:36:36;5.93;;;4.40;;
21426;SDS011;10874;49.452;11.050;2023-04-22T02:39:04;7.10;;;4.63;;
21426;SDS011;10874;49.452;11.050;2023-04-22T02:41:34;5.43;;;4.80;;
21426;SDS011;10874;49.452;11.050;2023-04-22T02:44:00;5.77;;;4.60;;
21426;SDS011;10874;49.452;11.050;2023-04-22T02:46:28;6.53;;;4.90;;
21426;SDS011;10874;49.452;11.050;2023-04-22T02:48:54;7.80;;;4.87;;
21426;SDS011;10874;49.452;11.050;2023-04-22T02:51:21;7.13;;;5.07;;
21426;SDS011;10874;49.452;11.050;2023-04-22T02:53:48;5.33;;;4.57;;
21426;SDS011;10874;49.452;11.050;2023-04-22T02:56:15;6.07;;;5.20;;
21426;SDS011;10874;49.452;11.050;2023-04-22T02:58:41;4.93;;;4.33;;
21426;SDS011;10874;49.452;11.050;2023-04-22T03:01:08;6.53;;;4.70;;
21426;SDS011;10874;49.452;11.050;2023-04-22T03:03:35;6.83;;;5.00;;
21426;SDS011;10874;49.452;11.050;2023-04-22T03:06:04;5.23;;;4.57;;
21426;SDS011;10874;49.452;11.050;2023-04-22T03:08:31;5.83;;;5.23;;
21426;SDS011;10874;49.452;11.050;2023-04-22T03:10:58;7.77;;;5.00;;
21426;SDS011;10874;49.452;11.050;2023-04-22T03:13:24;9.60;;;5.13;;
21426;SDS011;10874;49.452;11.050;2023-04-22T03:15:51;6.73;;;5.07;;
21426;SDS011;10874;49.452;11.050;2023-04-22T03:18:18;6.20;;;4.73;;
21426;SDS011;10874;49.452;11.050;2023-04-22T03:20:45;9.07;;;5.23;;
21426;SDS011;10874;49.452;11.050;2023-04-22T03:23:13;9.27;;;5.20;;
21426;SDS011;10874;49.452;11.050;2023-04-22T03:25:40;5.87;;;4.77;;
21426;SDS011;10874;49.452;11.050;2023-04-22T03:28:07;8.10;;;5.10;;
21426;SDS011;10874;49.452;11.050;2023-04-22T03:30:33;7.63;;;5.07;;
21426;SDS011;10874;49.452;11.050;2023-04-22T03:33:00;10.10;;;5.90;;
21426;SDS011;10874;49.452;11.050;2023-04-22T03:35:37;8.30;;;5.67;;
21426;SDS011;10874;49.452;11.050;2023-04-22T03:38:04;8.03;;;4.93;;
21426;SDS011;10874;49.452;11.050;2023-04-22T03:40:33;7.83;;;5.33;;
21426;SDS011;10874;49.452;11.050;2023-04-22T03:43:04;8.47;;;4.87;;
21426;SDS011;10874;49.452;11.050;2023-04-22T03:45:31;8.50;;;5.53;;
21426;SDS011;10874;49.452;11.050;2023-04-22T03:48:21;7.73;;;5.20;;
21426;SDS011;10874;49.452;11.050;2023-04-22T03:50:50;7.07;;;5.50;;
21426;SDS011;10874;49.452;11.050;2023-04-22T03:53:18;6.60;;;5.03;;
21426;SDS011;10874;49.452;11.050;2023-04-22T03:55:44;7.37;;;5.17;;
21426;SDS011;10874;49.452;11.050;2023-04-22T03:58:13;7.33;;;4.93;;
21426;SDS011;10874;49.452;11.050;2023-04-22T04:00:40;5.57;;;4.97;;
21426;SDS011;10874;49.452;11.050;2023-04-22T04:03:13;10.37;;;5.10;;
21426;SDS011;10874;49.452;11.050;2023-04-22T04:05:40;8.37;;;4.90;;
21426;SDS011;10874;49.452;11.050;2023-04-22T04:08:07;7.80;;;4.67;;
21426;SDS011;10874;49.452;11.050;2023-04-22T04:10:35;6.67;;;5.03;;
21426;SDS011;10874;49.452;11.050;2023-04-22T04:13:02;6.53;;;4.90;;
21426;SDS011;10874;49.452;11.050;2023-04-22T04:15:37;5.67;;;4.63;;
21426;SDS011;10874;49.452;11.050;2023-04-22T04:18:05;6.07;;;4.67;;
21426;SDS011;10874;49.452;11.050;2023-04-22T04:20:32;7.10;;;4.87;;
21426;SDS011;10874;49.452;11.050;2023-04-22T04:22:59;7.00;;;5.23;;
21426;SDS011;10874;49.452;11.050;2023-04-22T04:25:27;6.90;;;5.20;;
21426;SDS011;10874;49.452;11.050;2023-04-22T04:28:04;6.33;;;5.20;;
21426;SDS011;10874;49.452;11.050;2023-04-22T04:30:35;5.67;;;4.60;;
21426;SDS011;10874;49.452;11.050;2023-04-22T04:33:02;6.00;;;4.93;;
21426;SDS011;10874;49.452;11.050;2023-04-22T04:35:33;6.97;;;4.77;;
21426;SDS011;10874;49.452;11.050;2023-04-22T04:38:00;6.20;;;4.90;;
21426;SDS011;10874;49.452;11.050;2023-04-22T04:40:29;7.37;;;4.90;;
21426;SDS011;10874;49.452;11.050;2023-04-22T04:43:13;7.40;;;4.93;;
21426;SDS011;10874;49.452;11.050;2023-04-22T04:45:46;7.20;;;5.30;;
21426;SDS011;10874;49.452;11.050;2023-04-22T04:48:17;6.97;;;5.10;;
21426;SDS011;10874;49.452;11.050;2023-04-22T04:50:50;5.83;;;4.30;;
21426;SDS011;10874;49.452;11.050;2023-04-22T04:53:20;5.27;;;4.70;;
21426;SDS011;10874;49.452;11.050;2023-04-22T04:55:47;7.90;;;5.37;;
21426;SDS011;10874;49.452;11.050;2023-04-22T04:58:20;5.37;;;4.87;;
21426;SDS011;10874;49.452;11.050;2023-04-22T05:00:56;5.70;;;5.10;;
21426;SDS011;10874;49.452;11.050;2023-04-22T05:03:24;7.40;;;4.87;;
21426;SDS011;10874;49.452;11.050;2023-04-22T05:05:52;5.17;;;4.63;;
21426;SDS011;10874;49.452;11.050;2023-04-22T05:08:19;6.77;;;4.27;;
21426;SDS011;10874;49.452;11.050;2023-04-22T05:10:47;5.27;;;4.73;;
21426;SDS011;10874;49.452;11.050;2023-04-22T05:13:15;4.90;;;4.27;;
21426;SDS011;10874;49.452;11.050;2023-04-22T05:15:44;6.43;;;4.57;;
21426;SDS011;10874;49.452;11.050;2023-04-22T05:18:11;5.40;;;4.57;;
21426;SDS011;10874;49.452;11.050;2023-04-22T05:20:39;4.93;;;3.90;;
21426;SDS011;10874;49.452;11.050;2023-04-22T05:23:05;5.17;;;4.40;;
21426;SDS011;10874;49.452;11.050;2023-04-22T05:25:32;6.43;;;4.40;;
21426;SDS011;10874;49.452;11.050;2023-04-22T05:28:05;6.03;;;3.97;;
21426;SDS011;10874;49.452;11.050;2023-04-22T05:30:39;6.70;;;4.40;;
21426;SDS011;10874;49.452;11.050;2023-04-22T05:33:05;6.47;;;4.70;;
21426;SDS011;10874;49.452;11.050;2023-04-22T05:35:34;6.20;;;4.57;;
21426;SDS011;10874;49.452;11.050;2023-04-22T05:38:01;7.40;;;4.67;;
21426;SDS011;10874;49.452;11.050;2023-04-22T05:40:30;10.17;;;4.10;;
21426;SDS011;10874;49.452;11.050;2023-04-22T05:42:57;5.90;;;4.90;;
21426;SDS011;10874;49.452;11.050;2023-04-22T05:45:25;5.33;;;4.37;;
21426;SDS011;10874;49.452;11.050;2023-04-22T05:47:52;6.23;;;4.60;;
21426;SDS011;10874;49.452;11.050;2023-04-22T05:50:19;5.60;;;4.43;;
21426;SDS011;10874;49.452;11.050;2023-04-22T05:52:54;5.10;;;4.60;;
21426;SDS011;10874;49.452;11.050;2023-04-22T05:55:21;6.17;;;4.27;;
21426;SDS011;10874;49.452;11.050;2023-04-22T05:57:47;6.63;;;4.67;;
21426;SDS011;10874;49.452;11.050;2023-04-22T06:00:34;5.93;;;4.63;;
21426;SDS011;10874;49.452;11.050;2023-04-22T06:03:19;5.97;;;4.70;;
21426;SDS011;10874;49.452;11.050;2023-04-22T06:05:46;8.30;;;4.87;;
21426;SDS011;10874;49.452;11.050;2023-04-22T06:08:12;7.37;;;5.47;;
21426;SDS011;10874;49.452;11.050;2023-04-22T06:10:39;5.70;;;4.60;;
21426;SDS011;10874;49.452;11.050;2023-04-22T06:13:06;7.03;;;4.80;;
21426;SDS011;10874;49.452;11.050;2023-04-22T06:15:33;4.97;;;4.50;;
21426;SDS011;10874;49.452;11.050;2023-04-22T06:17:59;6.83;;;4.60;;
21426;SDS011;10874;49.452;11.050;2023-04-22T06:20:26;7.43;;;4.80;;
21426;SDS011;10874;49.452;11.050;2023-04-22T06:22:53;5.57;;;4.40;;
21426;SDS011;10874;49.452;11.050;2023-04-22T06:25:20;5.17;;;4.27;;
21426;SDS011;10874;49.452;11.050;2023-04-22T06:27:47;13.43;;;6.60;;
21426;SDS011;10874;49.452;11.050;2023-04-22T06:30:14;7.37;;;4.70;;
21426;SDS011;10874;49.452;11.050;2023-04-22T06:32:40;5.70;;;4.63;;
21426;SDS011;10874;49.452;11.050;2023-04-22T06:35:07;7.27;;;4.30;;
21426;SDS011;10874;49.452;11.050;2023-04-22T06:37:34;6.17;;;4.80;;
21426;SDS011;10874;49.452;11.050;2023-04-22T06:40:03;6.67;;;4.83;;
21426;SDS011;10874;49.452;11.050;2023-04-22T06:42:59;5.90;;;4.23;;
21426;SDS011;10874;49.452;11.050;2023-04-22T06:45:52;4.63;;;4.20;;
21426;SDS011;10874;49.452;11.050;2023-04-22T06:48:37;6.40;;;4.80;;
21426;SDS011;10874;49.452;11.050;2023-04-22T06:51:24;7.73;;;5.07;;
21426;SDS011;10874;49.452;11.050;2023-04-22T06:53:51;8.87;;;4.37;;
21426;SDS011;10874;49.452;11.050;2023-04-22T06:56:18;6.43;;;4.10;;
21426;SDS011;10874;49.452;11.050;2023-04-22T06:58:45;5.13;;;3.73;;
21426;SDS011;10874;49.452;11.050;2023-04-22T07:01:11;6.07;;;4.73;;
21426;SDS011;10874;49.452;11.050;2023-04-22T07:03:39;5.60;;;4.33;;
21426;SDS011;10874;49.452;11.050;2023-04-22T07:06:10;5.57;;;3.70;;
21426;SDS011;10874;49.452;11.050;2023-04-22T07:08:38;6.17;;;3.70;;
21426;SDS011;10874;49.452;11.050;2023-04-22T07:11:04;5.93;;;3.77;;
21426;SDS011;10874;49.452;11.050;2023-04-22T07:14:01;3.97;;;3.57;;
21426;SDS011;10874;49.452;11.050;2023-04-22T07:16:27;5.07;;;4.10;;
21426;SDS011;10874;49.452;11.050;2023-04-22T07:18:54;4.27;;;3.43;;
21426;SDS011;10874;49.452;11.050;2023-04-22T07:21:21;4.27;;;3.13;;
21426;SDS011;10874;49.452;11.050;2023-04-22T07:23:48;8.87;;;4.10;;
21426;SDS011;10874;49.452;11.050;2023-04-22T07:26:15;4.80;;;3.50;;
21426;SDS011;10874;49.452;11.050;2023-04-22T07:28:41;4.67;;;3.17;;
21426;SDS011;10874;49.452;11.050;2023-04-22T07:31:08;4.97;;;3.30;;
21426;SDS011;10874;49.452;11.050;2023-04-22T07:33:35;4.60;;;3.43;;
21426;SDS011;10874;49.452;11.050;2023-04-22T07:36:02;4.43;;;3.40;;
21426;SDS011;10874;49.452;11.050;2023-04-22T07:38:28;3.60;;;3.20;;
21426;SDS011;10874;49.452;11.050;2023-04-22T07:40:55;4.57;;;3.00;;
21426;SDS011;10874;49.452;11.050;2023-04-22T07:43:22;5.97;;;3.63;;
21426;SDS011;10874;49.452;11.050;2023-04-22T07:45:49;6.43;;;3.60;;
21426;SDS011;10874;49.452;11.050;2023-04-22T07:48:16;4.17;;;3.20;;
21426;SDS011;10874;49.452;11.050;2023-04-22T07:50:42;5.50;;;3.17;;
21426;SDS011;10874;49.452;11.050;2023-04-22T07:53:09;4.63;;;3.30;;
21426;SDS011;10874;49.452;11.050;2023-04-22T07:55:36;5.03;;;3.20;;
21426;SDS011;10874;49.452;11.050;2023-04-22T07:58:03;5.63;;;3.13;;
21426;SDS011;10874;49.452;11.050;2023-04-22T08:00:32;5.33;;;3.70;;
21426;SDS011;10874;49.452;11.050;2023-04-22T08:02:59;6.90;;;3.47;;
21426;SDS011;10874;49.452;11.050;2023-04-22T08:05:26;4.60;;;3.30;;
21426;SDS011;10874;49.452;11.050;2023-04-22T08:07:53;6.00;;;3.23;;
21426;SDS011;10874;49.452;11.050;2023-04-22T08:10:19;3.47;;;3.07;;
21426;SDS011;10874;49.452;11.050;2023-04-22T08:12:46;7.97;;;3.67;;
21426;SDS011;10874;49.452;11.050;2023-04-22T08:15:13;5.00;;;3.27;;
21426;SDS011;10874;49.452;11.050;2023-04-22T08:17:39;3.90;;;2.97;;
21426;SDS011;10874;49.452;11.050;2023-04-22T08:20:06;6.53;;;3.43;;
21426;SDS011;10874;49.452;11.050;2023-04-22T08:22:33;3.87;;;3.23;;
21426;SDS011;10874;49.452;11.050;2023-04-22T08:25:01;4.03;;;3.17;;
21426;SDS011;10874;49.452;11.050;2023-04-22T08:27:27;5.07;;;3.40;;
21426;SDS011;10874;49.452;11.050;2023-04-22T08:29:54;4.47;;;3.30;;
21426;SDS011;10874;49.452;11.050;2023-04-22T08:32:21;4.00;;;2.93;;
21426;SDS011;10874;49.452;11.050;2023-04-22T08:34:48;3.97;;;3.30;;
21426;SDS011;10874;49.452;11.050;2023-04-22T08:37:17;4.60;;;2.93;;
21426;SDS011;10874;49.452;11.050;2023-04-22T08:39:44;4.57;;;2.97;;
21426;SDS011;10874;49.452;11.050;2023-04-22T08:42:11;5.00;;;3.13;;
21426;SDS011;10874;49.452;11.050;2023-04-22T08:44:38;3.30;;;3.00;;
21426;SDS011;10874;49.452;11.050;2023-04-22T08:47:05;3.93;;;3.07;;
21426;SDS011;10874;49.452;11.050;2023-04-22T08:49:31;3.00;;;2.70;;
21426;SDS011;10874;49.452;11.050;2023-04-22T08:52:00;4.53;;;3.47;;
21426;SDS011;10874;49.452;11.050;2023-04-22T08:54:27;3.43;;;3.13;;
21426;SDS011;10874;49.452;11.050;2023-04-22T08:56:53;3.40;;;3.10;;
21426;SDS011;10874;49.452;11.050;2023-04-22T08:59:21;4.67;;;3.33;;
21426;SDS011;10874;49.452;11.050;2023-04-22T09:01:49;4.53;;;3.10;;
21426;SDS011;10874;49.452;11.050;2023-04-22T09:04:17;5.30;;;3.27;;
21426;SDS011;10874;49.452;11.050;2023-04-22T09:06:44;4.57;;;3.00;;
21426;SDS011;10874;49.452;11.050;2023-04-22T09:09:11;4.87;;;3.30;;
21426;SDS011;10874;49.452;11.050;2023-04-22T09:11:38;3.80;;;2.90;;
21426;SDS011;10874;49.452;11.050;2023-04-22T09:14:04;4.37;;;3.00;;
21426;SDS011;10874;49.452;11.050;2023-04-22T09:16:32;4.57;;;2.90;;
21426;SDS011;10874;49.452;11.050;2023-04-22T09:18:59;3.00;;;2.73;;
21426;SDS011;10874;49.452;11.050;2023-04-22T09:21:27;3.23;;;2.93;;
21426;SDS011;10874;49.452;11.050;2023-04-22T09:23:54;4.67;;;2.80;;
21426;SDS011;10874;49.452;11.050;2023-04-22T09:26:22;4.00;;;2.77;;
21426;SDS011;10874;49.452;11.050;2023-04-22T09:28:53;3.57;;;3.07;;
21426;SDS011;10874;49.452;11.050;2023-04-22T09:31:21;3.87;;;3.40;;
21426;SDS011;10874;49.452;11.050;2023-04-22T09:33:51;5.37;;;3.63;;
21426;SDS011;10874;49.452;11.050;2023-04-22T09:36:22;3.70;;;3.20;;
21426;SDS011;10874;49.452;11.050;2023-04-22T09:38:53;5.87;;;3.10;;
21426;SDS011;10874;49.452;11.050;2023-04-22T09:41:30;3.87;;;2.90;;
21426;SDS011;10874;49.452;11.050;2023-04-22T09:43:58;5.57;;;3.13;;
21426;SDS011;10874;49.452;11.050;2023-04-22T09:46:25;3.43;;;2.80;;
21426;SDS011;10874;49.452;11.050;2023-04-22T09:48:56;4.03;;;2.70;;
21426;SDS011;10874;49.452;11.050;2023-04-22T09:51:23;2.80;;;2.37;;
21426;SDS011;10874;49.452;11.050;2023-04-22T09:53:59;3.70;;;2.60;;
21426;SDS011;10874;49.452;11.050;2023-04-22T09:56:39;2.87;;;2.60;;
21426;SDS011;10874;49.452;11.050;2023-04-22T09:59:07;4.63;;;3.20;;
21426;SDS011;10874;49.452;11.050;2023-04-22T10:01:37;3.97;;;3.23;;
21426;SDS011;10874;49.452;11.050;2023-04-22T10:04:06;3.33;;;2.97;;
21426;SDS011;10874;49.452;11.050;2023-04-22T10:06:35;3.30;;;2.93;;
21426;SDS011;10874;49.452;11.050;2023-04-22T10:09:02;2.97;;;2.43;;
21426;SDS011;10874;49.452;11.050;2023-04-22T10:11:30;3.63;;;2.50;;
21426;SDS011;10874;49.452;11.050;2023-04-22T10:13:57;3.23;;;2.50;;
21426;SDS011;10874;49.452;11.050;2023-04-22T10:16:27;4.97;;;2.63;;
21426;SDS011;10874;49.452;11.050;2023-04-22T10:18:54;3.13;;;2.60;;
21426;SDS011;10874;49.452;11.050;2023-04-22T10:21:22;2.93;;;2.47;;
21426;SDS011;10874;49.452;11.050;2023-04-22T10:23:51;2.60;;;2.30;;
21426;SDS011;10874;49.452;11.050;2023-04-22T10:26:41;2.43;;;2.20;;
21426;SDS011;10874;49.452;11.050;2023-04-22T10:29:12;2.27;;;2.07;;
21426;SDS011;10874;49.452;11.050;2023-04-22T10:31:42;2.57;;;2.30;;
21426;SDS011;10874;49.452;11.050;2023-04-22T10:34:10;2.53;;;2.33;;
21426;SDS011;10874;49.452;11.050;2023-04-22T10:36:54;3.50;;;2.40;;
21426;SDS011;10874;49.452;11.050;2023-04-22T10:39:21;4.37;;;2.37;;
21426;SDS011;10874;49.452;11.050;2023-04-22T10:41:49;2.97;;;2.40;;
21426;SDS011;10874;49.452;11.050;2023-04-22T10:44:17;2.97;;;2.37;;
21426;SDS011;10874;49.452;11.050;2023-04-22T10:46:54;2.63;;;2.00;;
21426;SDS011;10874;49.452;11.050;2023-04-22T10:49:21;2.70;;;2.30;;
21426;SDS011;10874;49.452;11.050;2023-04-22T10:51:49;2.60;;;2.40;;
21426;SDS011;10874;49.452;11.050;2023-04-22T10:57:06;2.30;;;2.10;;
21426;SDS011;10874;49.452;11.050;2023-04-22T10:59:34;2.40;;;2.20;;
21426;SDS011;10874;49.452;11.050;2023-04-22T11:02:07;1.83;;;1.73;;
21426;SDS011;10874;49.452;11.050;2023-04-22T11:04:34;3.13;;;2.30;;
21426;SDS011;10874;49.452;11.050;2023-04-22T11:07:12;2.33;;;2.10;;
21426;SDS011;10874;49.452;11.050;2023-04-22T11:09:41;2.10;;;2.00;;
21426;SDS011;10874;49.452;11.050;2023-04-22T11:14:54;2.13;;;1.93;;
21426;SDS011;10874;49.452;11.050;2023-04-22T11:17:21;2.10;;;1.90;;
21426;SDS011;10874;49.452;11.050;2023-04-22T11:19:48;2.27;;;2.07;;
21426;SDS011;10874;49.452;11.050;2023-04-22T11:22:16;1.83;;;1.70;;
21426;SDS011;10874;49.452;11.050;2023-04-22T11:24:52;2.97;;;2.00;;
21426;SDS011;10874;49.452;11.050;2023-04-22T11:27:19;2.20;;;1.80;;
21426;SDS011;10874;49.452;11.050;2023-04-22T11:30:01;2.50;;;1.70;;
21426;SDS011;10874;49.452;11.050;2023-04-22T11:32:28;2.83;;;1.90;;
21426;SDS011;10874;49.452;11.050;2023-04-22T11:34:55;2.10;;;1.90;;
21426;SDS011;10874;49.452;11.050;2023-04-22T11:37:22;1.80;;;1.70;;
21426;SDS011;10874;49.452;11.050;2023-04-22T11:39:49;3.47;;;2.20;;
21426;SDS011;10874;49.452;11.050;2023-04-22T11:42:21;1.70;;;1.60;;
21426;SDS011;10874;49.452;11.050;2023-04-22T11:44:49;1.53;;;1.43;;
21426;SDS011;10874;49.452;11.050;2023-04-22T11:47:16;2.17;;;1.83;;
21426;SDS011;10874;49.452;11.050;2023-04-22T11:49:55;1.50;;;1.40;;
21426;SDS011;10874;49.452;11.050;2023-04-22T11:52:23;2.13;;;1.50;;
21426;SDS011;10874;49.452;11.050;2023-04-22T11:54:49;1.67;;;1.57;;
21426;SDS011;10874;49.452;11.050;2023-04-22T11:57:16;2.13;;;1.73;;
21426;SDS011;10874;49.452;11.050;2023-04-22T11:59:43;1.70;;;1.60;;
21426;SDS011;10874;49.452;11.050;2023-04-22T12:02:10;1.83;;;1.73;;
21426;SDS011;10874;49.452;11.050;2023-04-22T12:04:40;3.53;;;2.10;;
21426;SDS011;10874;49.452;11.050;2023-04-22T12:07:07;1.80;;;1.70;;
21426;SDS011;10874;49.452;11.050;2023-04-22T12:09:33;1.77;;;1.40;;
21426;SDS011;10874;49.452;11.050;2023-04-22T12:12:02;1.73;;;1.60;;
21426;SDS011;10874;49.452;11.050;2023-04-22T12:14:32;3.00;;;2.10;;
21426;SDS011;10874;49.452;11.050;2023-04-22T12:17:04;3.00;;;2.03;;
21426;SDS011;10874;49.452;11.050;2023-04-22T12:19:34;2.40;;;2.20;;
21426;SDS011;10874;49.452;11.050;2023-04-22T12:22:00;2.70;;;2.00;;
21426;SDS011;10874;49.452;11.050;2023-04-22T12:24:27;3.47;;;1.90;;
21426;SDS011;10874;49.452;11.050;2023-04-22T12:26:54;4.17;;;2.40;;
21426;SDS011;10874;49.452;11.050;2023-04-22T12:29:26;2.40;;;2.20;;
21426;SDS011;10874;49.452;11.050;2023-04-22T12:31:53;3.00;;;2.07;;
21426;SDS011;10874;49.452;11.050;2023-04-22T12:34:20;3.90;;;2.40;;
21426;SDS011;10874;49.452;11.050;2023-04-22T12:36:46;3.27;;;2.33;;
21426;SDS011;10874;49.452;11.050;2023-04-22T12:39:13;3.37;;;2.60;;
21426;SDS011;10874;49.452;11.050;2023-04-22T12:41:40;2.60;;;2.40;;
21426;SDS011;10874;49.452;11.050;2023-04-22T12:44:07;3.10;;;2.30;;
21426;SDS011;10874;49.452;11.050;2023-04-22T12:46:34;4.07;;;2.80;;
21426;SDS011;10874;49.452;11.050;2023-04-22T12:49:01;2.63;;;2.43;;
21426;SDS011;10874;49.452;11.050;2023-04-22T12:51:28;2.47;;;2.27;;
21426;SDS011;10874;49.452;11.050;2023-04-22T12:53:54;3.80;;;2.33;;
21426;SDS011;10874;49.452;11.050;2023-04-22T12:56:21;2.90;;;2.30;;
21426;SDS011;10874;49.452;11.050;2023-04-22T12:58:48;2.53;;;2.33;;
21426;SDS011;10874;49.452;11.050;2023-04-22T13:01:15;2.53;;;2.33;;
21426;SDS011;10874;49.452;11.050;2023-04-22T13:03:41;3.00;;;2.40;;
21426;SDS011;10874;49.452;11.050;2023-04-22T13:06:08;2.50;;;2.30;;
21426;SDS011;10874;49.452;11.050;2023-04-22T13:08:35;2.70;;;2.20;;
21426;SDS011;10874;49.452;11.050;2023-04-22T13:11:02;2.43;;;2.20;;
21426;SDS011;10874;49.452;11.050;2023-04-22T13:13:30;3.70;;;2.60;;
21426;SDS011;10874;49.452;11.050;2023-04-22T13:15:56;2.63;;;2.37;;
21426;SDS011;10874;49.452;11.050;2023-04-22T13:18:23;3.47;;;2.60;;
21426;SDS011;10874;49.452;11.050;2023-04-22T13:20:50;2.77;;;1.90;;
21426;SDS011;10874;49.452;11.050;2023-04-22T13:23:17;2.87;;;2.60;;
21426;SDS011;10874;49.452;11.050;2023-04-22T13:25:45;2.50;;;2.30;;
21426;SDS011;10874;49.452;11.050;2023-04-22T13:28:13;3.07;;;2.77;;
21426;SDS011;10874;49.452;11.050;2023-04-22T13:30:39;3.93;;;2.30;;
21426;SDS011;10874;49.452;11.050;2023-04-22T13:33:06;3.20;;;2.37;;
21426;SDS011;10874;49.452;11.050;2023-04-22T13:35:33;2.93;;;2.40;;
21426;SDS011;10874;49.452;11.050;2023-04-22T13:38:00;2.53;;;2.33;;
21426;SDS011;10874;49.452;11.050;2023-04-22T13:40:27;2.57;;;2.27;;
21426;SDS011;10874;49.452;11.050;2023-04-22T13:42:54;2.40;;;2.20;;
21426;SDS011;10874;49.452;11.050;2023-04-22T13:45:20;2.63;;;2.30;;
21426;SDS011;10874;49.452;11.050;2023-04-22T13:47:47;3.53;;;2.10;;
21426;SDS011;10874;49.452;11.050;2023-04-22T13:50:14;3.47;;;2.50;;
21426;SDS011;10874;49.452;11.050;2023-04-22T13:52:41;3.87;;;2.30;;
21426;SDS011;10874;49.452;11.050;2023-04-22T13:55:08;2.73;;;2.20;;
21426;SDS011;10874;49.452;11.050;2023-04-22T13:57:35;2.77;;;2.27;;
21426;SDS011;10874;49.452;11.050;2023-04-22T14:00:01;1.90;;;1.80;;
21426;SDS011;10874;49.452;11.050;2023-04-22T14:02:37;2.17;;;1.97;;
21426;SDS011;10874;49.452;11.050;2023-04-22T14:05:04;4.80;;;1.87;;
21426;SDS011;10874;49.452;11.050;2023-04-22T14:07:31;1.77;;;1.67;;
21426;SDS011;10874;49.452;11.050;2023-04-22T14:09:58;2.37;;;1.90;;
21426;SDS011;10874;49.452;11.050;2023-04-22T14:12:24;1.87;;;1.77;;
21426;SDS011;10874;49.452;11.050;2023-04-22T14:14:51;1.93;;;1.80;;
21426;SDS011;10874;49.452;11.050;2023-04-22T14:17:18;2.23;;;1.80;;
21426;SDS011;10874;49.452;11.050;2023-04-22T14:19:46;2.33;;;1.70;;
21426;SDS011;10874;49.452;11.050;2023-04-22T14:22:12;2.13;;;1.90;;
21426;SDS011;10874;49.452;11.050;2023-04-22T14:24:39;2.13;;;2.00;;
21426;SDS011;10874;49.452;11.050;2023-04-22T14:27:06;2.17;;;1.93;;
21426;SDS011;10874;49.452;11.050;2023-04-22T14:29:33;2.37;;;1.80;;
21426;SDS011;10874;49.452;11.050;2023-04-22T14:31:59;2.83;;;1.90;;
21426;SDS011;10874;49.452;11.050;2023-04-22T14:34:26;2.37;;;1.80;;
21426;SDS011;10874;49.452;11.050;2023-04-22T14:36:53;2.67;;;1.73;;
21426;SDS011;10874;49.452;11.050;2023-04-22T14:39:20;1.93;;;1.50;;
21426;SDS011;10874;49.452;11.050;2023-04-22T14:41:47;1.80;;;1.70;;
21426;SDS011;10874;49.452;11.050;2023-04-22T14:44:14;2.20;;;1.83;;
21426;SDS011;10874;49.452;11.050;2023-04-22T14:46:41;2.43;;;2.00;;